Friedman Memorial Airport Hailey US
ICAO: KSUN
IATA: SUN
Category: Medium
Scheduled Services: Yes

Elevation: 5318 ft
TransAlt. 18000 ft.

Airport Communications:
ATIS:128.225
AWOS:128.225
SALT LAKE CITY CNTR:118.05
CTAF:125.6
GND:121.7
BOISE RDO:122.4
HAILEY TWR:125.6
UNICOM:122.95

KSUN Zoom In..

If you have problems with the map follow the link
https://www.worldairports.se/pages/airport.php?
ICAO=KSUN

Runways:

(A) RW 13 length 7550 ft width 100 ft
---- / hdg 129

(B) RW 31 length 7550 ft width 100 ft
---- / hdg 309

Location; KSUN
Day. 12 / Time. 10.35 Zulu
* Altimeter: 30.06
* Temperature: -01° c. -30.2°f.
* Wind from: 000° Speed 00 kn.
Dewpoint: -01° c.
Visibility: 2 m.
Clouds: Scattered 400 ft.
Clouds: Overcast 900 ft.
Conditions: Light Snow.

KSUN 121035Z AUTO 00000KT 2 1/2SM -SN SCT004 OVC009 M01/M01 A3006 RMK AO2


Wind - Calm.

 
 
jpsmedia worldairports.se 2019   terms of use